This is the latest recevied weather packets stored in our database for station/object kc7mrq. If no packets are shown the sender has not sent any weather packets the latest 10 day(s).
| Time | Temp. | Humidity | Pressure | Rain* | Wind** | Luminosity | Snow |
|---|---|---|---|---|---|---|---|
| 1777609856 | 4.44° C | 54% | 1020.9 hPa | 0 mm | - | - | - |
| 1777608049 | 5° C | 50% | 1020.7 hPa | 0 mm | - | - | - |
| 1777607151 | 6.11° C | 47% | 1020.7 hPa | 0 mm | - | - | - |
| 1777606240 | 5.56° C | 49% | 1020.5 hPa | 0 mm | - | - | - |
| 1777605340 | 6.11° C | 46% | 1020.5 hPa | 0 mm | - | - | - |
| 1777599034 | 11.67° C | 31% | 1020.1 hPa | 0 mm | - | - | - |
| 1777593624 | 11.67° C | 31% | 1020.6 hPa | 0 mm | - | - | - |
| 1777589120 | 12.22° C | 31% | 1020.9 hPa | 0 mm | - | - | - |
| 1777588216 | 11.67° C | 32% | 1021 hPa | 0 mm | - | - | - |
| 1777587334 | 12.22° C | 31% | 1021.2 hPa | 0 mm | - | - | - |
| 1777586412 | 11.67° C | 32% | 1021.3 hPa | 0 mm | - | - | - |
| 1777582808 | 11.11° C | 31% | 1022 hPa | 0 mm | - | - | - |
| 1777578355 | 9.44° C | 36% | 1022.6 hPa | 0 mm | - | - | - |
| 1777574746 | 9.44° C | 36% | 1023.3 hPa | 0 mm | - | - | - |
| 1777569340 | 7.78° C | 42% | 1023.7 hPa | 0 mm | - | - | - |
| 1777564828 | 7.78° C | 50% | 1024.3 hPa | 0 mm | - | - | - |
| 1777562129 | 4.44° C | 60% | 1024.9 hPa | 0 mm | - | - | - |
| 1777561218 | 4.44° C | 58% | 1024.9 hPa | 0 mm | - | - | - |
| 1777554001 | 0° C | 70% | 1024.5 hPa | 0 mm | - | - | - |
| 1777546857 | 0.56° C | 68% | 1024.4 hPa | 0 mm | - | - | - |
| 1777537862 | 1.11° C | 67% | 1024.3 hPa | 0 mm | - | - | - |
| 1777536939 | 1.11° C | 67% | 1024.3 hPa | 0 mm | - | - | - |
| 1777536038 | 1.11° C | 67% | 1024.5 hPa | 0 mm | - | - | - |
| 1777535136 | 1.11° C | 68% | 1024.6 hPa | 0 mm | - | - | - |
| 1777532432 | 1.11° C | 70% | 1024.6 hPa | 0 mm | - | - | - |
* Rain latest hour (hover to see other rain measurements)
** Current wind speed in m/s (hover to see current wind gust speed)